Time;durP1;ratioP1;P1;durP2;ratioP2;P2;SDS_P1;SDS_P2;PMS_P1;PMS_P2;Temp;Humidity;BMP_temperature;BMP_pressure;BME280_temperature;BME280_humidity;BME280_pressure;Samples;Min_cycle;Max_cycle;Signal;HPM_P1;HPM_P2
2023/08/29 00:00:42;;;;;;;1.90;1.27;;;15.90;83.80;;;;;;5034227;28;20079;-89
2023/08/29 00:03:07;;;;;;;1.80;1.08;;;15.90;83.90;;;;;;5034296;28;20022;-90
2023/08/29 00:05:33;;;;;;;1.35;1.20;;;15.90;83.90;;;;;;5035269;28;20031;-90
2023/08/29 00:07:59;;;;;;;2.35;1.42;;;15.80;83.90;;;;;;5039861;28;20044;-91
2023/08/29 00:10:25;;;;;;;1.40;1.30;;;15.90;84.00;;;;;;5037343;28;20598;-89
2023/08/29 00:12:50;;;;;;;1.30;1.20;;;15.80;84.00;;;;;;5037253;28;20503;-90
2023/08/29 00:15:16;;;;;;;1.98;1.38;;;15.80;84.20;;;;;;5039177;28;20036;-90
2023/08/29 00:17:43;;;;;;;2.25;1.30;;;15.80;84.30;;;;;;5037795;28;20029;-90
2023/08/29 00:20:10;;;;;;;2.05;1.20;;;15.80;84.40;;;;;;5042803;28;20115;-91
2023/08/29 00:22:36;;;;;;;1.65;1.30;;;15.80;84.40;;;;;;5045215;28;20438;-90
2023/08/29 00:25:01;;;;;;;1.40;1.30;;;15.80;84.50;;;;;;5040291;28;20025;-90
2023/08/29 00:27:27;;;;;;;1.50;1.25;;;15.80;84.50;;;;;;5043888;28;20290;-90
2023/08/29 00:29:53;;;;;;;2.53;1.50;;;15.80;84.50;;;;;;5042435;28;20063;-89
2023/08/29 00:32:18;;;;;;;1.73;1.50;;;15.80;84.50;;;;;;5044669;28;20103;-89
2023/08/29 00:34:44;;;;;;;1.90;1.10;;;15.70;84.50;;;;;;5047004;28;20033;-89
2023/08/29 00:37:09;;;;;;;2.50;1.45;;;15.70;84.60;;;;;;5049406;28;20553;-89
2023/08/29 00:39:35;;;;;;;1.40;1.30;;;15.70;84.60;;;;;;5047944;28;20086;-89
2023/08/29 00:42:01;;;;;;;2.10;1.50;;;15.70;84.70;;;;;;5042424;28;20040;-89
2023/08/29 00:44:27;;;;;;;2.35;1.40;;;15.70;84.80;;;;;;5041261;28;20159;-89
2023/08/29 00:46:53;;;;;;;1.40;1.30;;;15.60;84.90;;;;;;5038636;28;20060;-89
2023/08/29 00:49:23;;;;;;;1.50;1.40;;;15.60;85.00;;;;;;5041178;28;20023;-91
2023/08/29 00:51:49;;;;;;;1.38;1.27;;;15.50;85.20;;;;;;5039898;28;20066;-92
2023/08/29 00:54:17;;;;;;;1.92;1.20;;;15.50;85.30;;;;;;5049951;28;20029;-92
2023/08/29 00:56:44;;;;;;;1.40;1.30;;;15.50;85.40;;;;;;5045670;28;20029;-93
2023/08/29 00:59:10;;;;;;;1.85;1.13;;;15.50;85.40;;;;;;5043162;28;20049;-91
2023/08/29 01:01:36;;;;;;;1.55;1.20;;;15.40;85.30;;;;;;5050719;28;20020;-92
2023/08/29 01:04:02;;;;;;;2.33;1.33;;;15.40;85.30;;;;;;5043681;28;20537;-91
2023/08/29 01:06:32;;;;;;;1.30;1.20;;;15.40;85.20;;;;;;5046526;28;20029;-92
2023/08/29 01:08:58;;;;;;;1.85;1.20;;;15.40;85.20;;;;;;5040479;28;20029;-92
2023/08/29 01:12:02;;;;;;;1.52;1.23;;;15.50;85.20;;;;;;5044140;28;20112;-90
2023/08/29 01:14:40;;;;;;;1.83;1.40;;;15.40;85.20;;;;;;5046403;28;20032;-91
2023/08/29 01:17:13;;;;;;;1.75;1.30;;;15.40;85.20;;;;;;5041114;28;20504;-92
2023/08/29 01:19:40;;;;;;;1.83;1.23;;;15.40;85.20;;;;;;5044678;28;20068;-90
2023/08/29 01:22:25;;;;;;;1.40;1.30;;;15.40;85.20;;;;;;5042815;28;20031;-91
2023/08/29 01:25:06;;;;;;;1.70;1.30;;;15.40;85.20;;;;;;5040085;28;20070;-90
2023/08/29 01:27:34;;;;;;;1.75;1.30;;;15.40;85.40;;;;;;5041993;28;20069;-92
2023/08/29 01:30:01;;;;;;;2.35;1.38;;;15.40;85.50;;;;;;5042285;28;20313;-93
2023/08/29 01:32:27;;;;;;;2.08;1.25;;;15.30;85.60;;;;;;5040389;28;20025;-92
2023/08/29 01:34:53;;;;;;;1.33;1.23;;;15.30;85.60;;;;;;5038189;28;20483;-92
2023/08/29 01:37:21;;;;;;;2.60;1.60;;;15.20;85.70;;;;;;5043737;28;20017;-93
2023/08/29 01:39:47;;;;;;;1.73;1.40;;;15.20;85.80;;;;;;5045156;28;20036;-92
2023/08/29 01:42:12;;;;;;;1.45;1.35;;;15.20;85.80;;;;;;5040783;28;20043;-92
2023/08/29 01:44:38;;;;;;;2.08;1.25;;;15.20;85.90;;;;;;5045818;28;20321;-92
2023/08/29 01:47:04;;;;;;;1.60;1.42;;;15.20;86.00;;;;;;5041045;28;20029;-93
2023/08/29 01:49:32;;;;;;;1.98;1.20;;;15.10;86.00;;;;;;5040285;28;20034;-93
2023/08/29 01:51:58;;;;;;;1.33;1.23;;;15.10;86.00;;;;;;5037457;28;20083;-93
2023/08/29 01:54:24;;;;;;;1.77;1.20;;;15.10;86.10;;;;;;5047899;28;20025;-93
2023/08/29 01:56:52;;;;;;;1.45;1.33;;;15.10;86.30;;;;;;5040039;28;20547;-93
2023/08/29 01:59:18;;;;;;;1.40;1.30;;;15.10;86.50;;;;;;5042381;28;20488;-92
2023/08/29 02:01:45;;;;;;;1.70;1.30;;;15.10;86.60;;;;;;5044606;28;20024;-92
2023/08/29 02:04:11;;;;;;;2.22;1.30;;;15.10;86.70;;;;;;5047181;28;20028;-92
2023/08/29 02:06:36;;;;;;;3.63;1.40;;;15.10;86.70;;;;;;5041164;28;20063;-90
2023/08/29 02:09:03;;;;;;;2.70;1.40;;;15.10;86.70;;;;;;5041109;28;20040;-89
2023/08/29 02:11:30;;;;;;;2.00;1.40;;;15.10;86.80;;;;;;5044248;28;20048;-90
2023/08/29 02:13:55;;;;;;;1.85;1.30;;;15.10;86.80;;;;;;5042633;28;20056;-91
2023/08/29 02:16:21;;;;;;;1.83;1.40;;;15.10;86.90;;;;;;5040571;28;20045;-91
2023/08/29 02:18:46;;;;;;;1.60;1.20;;;15.10;86.80;;;;;;5042651;28;20037;-91
2023/08/29 02:21:13;;;;;;;1.40;1.30;;;15.20;86.70;;;;;;5037431;28;20014;-90
2023/08/29 02:23:38;;;;;;;1.63;1.40;;;15.20;86.60;;;;;;5036482;28;20503;-91
2023/08/29 02:26:05;;;;;;;1.30;1.20;;;15.20;86.50;;;;;;5039453;28;20025;-90
2023/08/29 02:28:36;;;;;;;1.40;1.30;;;15.20;86.60;;;;;;5043693;28;20028;-91
2023/08/29 02:31:03;;;;;;;2.83;1.33;;;15.20;86.60;;;;;;5040738;28;20486;-91
2023/08/29 02:33:29;;;;;;;1.83;1.08;;;15.20;86.70;;;;;;5038944;28;20026;-90
2023/08/29 02:35:55;;;;;;;2.20;1.20;;;15.20;86.80;;;;;;5040416;28;20383;-90
2023/08/29 02:38:21;;;;;;;2.25;0.90;;;15.20;86.80;;;;;;5045934;28;20021;-89
2023/08/29 02:40:46;;;;;;;1.02;1.00;;;15.20;86.80;;;;;;5043411;28;20063;-90
2023/08/29 02:43:12;;;;;;;4.28;1.20;;;15.20;87.40;;;;;;5044832;28;20027;-93
2023/08/29 02:45:37;;;;;;;1.13;0.98;;;15.30;86.80;;;;;;5038059;28;20028;-93
2023/08/29 02:48:04;;;;;;;2.30;1.30;;;15.30;86.90;;;;;;5044082;28;20025;-93
2023/08/29 02:50:30;;;;;;;1.52;0.85;;;15.30;86.90;;;;;;5036354;28;20029;-93
2023/08/29 02:52:56;;;;;;;1.60;1.00;;;15.30;87.00;;;;;;5046090;28;20043;-92
2023/08/29 02:55:22;;;;;;;1.80;1.00;;;15.30;87.00;;;;;;5037764;28;20502;-92
2023/08/29 02:57:47;;;;;;;1.20;1.00;;;15.30;87.10;;;;;;5040421;28;20091;-93
2023/08/29 03:00:14;;;;;;;2.13;0.90;;;15.40;87.10;;;;;;5037239;28;20041;-93
2023/08/29 03:02:40;;;;;;;1.98;1.10;;;15.40;87.00;;;;;;5042528;28;20111;-93
2023/08/29 03:05:06;;;;;;;1.33;0.90;;;15.40;87.00;;;;;;5041801;28;20115;-90
2023/08/29 03:07:31;;;;;;;1.42;0.90;;;15.40;87.00;;;;;;5033435;28;20521;-90
2023/08/29 03:09:57;;;;;;;1.40;1.10;;;15.40;87.00;;;;;;5042831;28;20091;-91
2023/08/29 03:12:22;;;;;;;1.50;1.00;;;15.40;87.00;;;;;;5030321;28;20046;-90
2023/08/29 03:14:53;;;;;;;2.25;1.08;;;15.40;86.90;;;;;;5039037;28;20021;-91
2023/08/29 03:17:19;;;;;;;2.50;0.90;;;15.40;87.00;;;;;;5040904;28;20049;-91
2023/08/29 03:19:47;;;;;;;1.20;1.10;;;15.40;86.90;;;;;;5050904;28;20065;-91
2023/08/29 03:22:13;;;;;;;1.23;0.80;;;15.40;86.90;;;;;;5050805;28;20413;-91
2023/08/29 03:24:38;;;;;;;1.40;1.00;;;15.40;86.90;;;;;;5051122;28;20017;-91
2023/08/29 03:27:04;;;;;;;1.00;0.90;;;15.40;86.80;;;;;;5050517;28;20018;-91
2023/08/29 03:29:30;;;;;;;1.20;0.95;;;15.40;86.70;;;;;;5032581;28;20022;-91
2023/08/29 03:31:55;;;;;;;2.35;1.00;;;15.40;86.70;;;;;;5042696;28;20021;-93
2023/08/29 03:34:21;;;;;;;1.52;1.00;;;15.40;86.70;;;;;;5038964;28;20044;-92
2023/08/29 03:36:46;;;;;;;1.98;1.00;;;15.40;86.70;;;;;;5030835;28;20036;-93
2023/08/29 03:39:12;;;;;;;2.03;1.02;;;15.30;86.60;;;;;;5031725;28;20041;-92
2023/08/29 03:41:38;;;;;;;1.02;0.90;;;15.30;86.50;;;;;;5036526;28;20028;-93
2023/08/29 03:44:05;;;;;;;1.10;0.88;;;15.30;86.60;;;;;;5040777;28;20036;-92
2023/08/29 03:46:31;;;;;;;1.67;0.98;;;15.30;86.70;;;;;;5045646;28;20030;-92
2023/08/29 03:48:56;;;;;;;3.03;1.15;;;15.30;86.60;;;;;;5044070;28;20650;-92
2023/08/29 03:51:22;;;;;;;1.58;1.02;;;15.30;86.50;;;;;;5041287;28;20013;-93
2023/08/29 03:53:48;;;;;;;1.33;1.00;;;15.30;86.60;;;;;;5042253;28;20021;-92
2023/08/29 03:56:14;;;;;;;1.88;1.10;;;15.20;86.30;;;;;;5044826;28;20108;-92
2023/08/29 03:58:40;;;;;;;2.00;1.20;;;15.20;86.30;;;;;;5040633;28;20037;-90
2023/08/29 04:01:05;;;;;;;3.08;1.13;;;15.20;86.30;;;;;;5049190;28;20518;-91
2023/08/29 04:03:31;;;;;;;1.80;1.00;;;15.20;86.30;;;;;;5044382;28;20037;-91
2023/08/29 04:05:57;;;;;;;1.83;1.20;;;15.20;86.30;;;;;;5043294;28;20720;-89
2023/08/29 04:08:23;;;;;;;2.25;1.15;;;15.10;86.20;;;;;;5039952;28;20022;-89
2023/08/29 04:10:48;;;;;;;2.40;1.20;;;15.10;86.30;;;;;;5035368;28;20067;-89
2023/08/29 04:13:14;;;;;;;2.30;1.10;;;15.00;86.30;;;;;;5049647;28;20029;-91
2023/08/29 04:15:41;;;;;;;1.25;0.90;;;15.00;86.50;;;;;;5047480;28;20057;-91
2023/08/29 04:18:10;;;;;;;1.65;0.93;;;15.00;86.60;;;;;;5047348;28;20051;-90
2023/08/29 04:20:36;;;;;;;2.50;1.00;;;15.00;86.60;;;;;;5040126;28;20053;-90
2023/08/29 04:23:06;;;;;;;2.13;1.00;;;14.90;86.60;;;;;;5040401;28;20506;-90
2023/08/29 04:25:35;;;;;;;1.92;1.10;;;14.90;86.60;;;;;;5052575;28;20475;-90
2023/08/29 04:28:01;;;;;;;1.17;1.08;;;14.90;86.50;;;;;;5027226;28;20120;-89
2023/08/29 04:30:26;;;;;;;1.13;1.02;;;14.90;86.50;;;;;;5043563;28;20344;-89
2023/08/29 04:32:52;;;;;;;1.13;0.90;;;14.80;86.40;;;;;;5044254;28;20018;-91
2023/08/29 04:35:18;;;;;;;1.52;1.10;;;14.70;86.50;;;;;;5043756;28;20029;-91
2023/08/29 04:37:48;;;;;;;2.67;1.00;;;14.70;86.90;;;;;;5047074;28;20037;-94
2023/08/29 04:40:18;;;;;;;1.50;1.20;;;14.60;87.10;;;;;;5047224;28;20036;-94
2023/08/29 04:42:44;;;;;;;1.55;1.23;;;14.60;87.10;;;;;;5041626;28;20482;-94
2023/08/29 04:45:10;;;;;;;1.45;1.10;;;14.60;87.00;;;;;;5042361;28;20031;-93
2023/08/29 04:47:36;;;;;;;1.38;1.00;;;14.60;86.90;;;;;;5045011;28;20032;-93
2023/08/29 04:50:03;;;;;;;1.85;1.00;;;14.60;87.50;;;;;;5049217;28;20025;-93
2023/08/29 04:52:29;;;;;;;1.27;1.00;;;14.60;86.90;;;;;;5042266;28;20154;-93
2023/08/29 04:54:55;;;;;;;1.30;1.10;;;14.60;86.90;;;;;;5043299;28;20037;-92
2023/08/29 04:57:21;;;;;;;3.25;1.10;;;14.60;86.80;;;;;;5041357;28;20031;-92
2023/08/29 04:59:47;;;;;;;1.42;1.20;;;14.60;86.80;;;;;;5042987;28;20791;-91
2023/08/29 05:02:13;;;;;;;1.80;1.15;;;14.60;86.70;;;;;;5049628;28;20051;-91
2023/08/29 05:04:38;;;;;;;2.15;1.10;;;14.60;86.70;;;;;;5043372;28;20275;-89
2023/08/29 05:07:04;;;;;;;1.55;1.02;;;14.60;86.60;;;;;;5051004;28;20032;-93
2023/08/29 05:09:30;;;;;;;1.10;0.98;;;14.50;86.60;;;;;;5047780;28;20275;-91
2023/08/29 05:11:55;;;;;;;1.15;0.90;;;14.50;86.70;;;;;;5054010;28;20028;-93
2023/08/29 05:14:21;;;;;;;1.40;0.90;;;14.50;86.70;;;;;;5045194;28;20040;-90
2023/08/29 05:16:47;;;;;;;3.05;1.10;;;14.50;86.70;;;;;;5045232;28;20040;-90
2023/08/29 05:19:12;;;;;;;1.23;0.90;;;14.50;86.80;;;;;;5045861;28;20032;-90
2023/08/29 05:21:38;;;;;;;1.75;1.00;;;14.50;87.00;;;;;;5041443;28;20028;-90
2023/08/29 05:24:04;;;;;;;3.13;0.90;;;14.50;87.00;;;;;;5043638;28;20025;-90
2023/08/29 05:26:30;;;;;;;1.23;1.10;;;14.60;86.90;;;;;;5036016;28;20491;-90
2023/08/29 05:28:55;;;;;;;2.20;1.00;;;14.60;86.70;;;;;;5041083;28;20017;-90
2023/08/29 05:31:21;;;;;;;1.80;1.25;;;14.60;86.60;;;;;;5042190;28;20480;-90
2023/08/29 05:33:47;;;;;;;2.90;1.30;;;14.70;86.50;;;;;;5042568;28;20032;-91
2023/08/29 05:36:13;;;;;;;1.25;1.15;;;14.70;86.40;;;;;;5041646;28;20472;-91
2023/08/29 05:38:39;;;;;;;1.50;1.30;;;14.70;86.10;;;;;;5042874;28;20178;-91
2023/08/29 05:41:05;;;;;;;1.88;1.40;;;14.80;86.10;;;;;;5038848;28;20028;-89
2023/08/29 05:43:30;;;;;;;1.58;1.17;;;14.80;86.10;;;;;;5042802;28;20029;-92
2023/08/29 05:45:56;;;;;;;2.22;1.25;;;14.70;86.00;;;;;;5039531;28;20130;-95
2023/08/29 05:48:21;;;;;;;1.63;1.17;;;14.80;86.10;;;;;;5045259;28;20079;-90
2023/08/29 05:50:53;;;;;;;1.55;1.17;;;14.80;85.90;;;;;;5039186;28;20030;-91
2023/08/29 05:53:18;;;;;;;1.67;1.17;;;14.90;85.90;;;;;;5051005;28;20029;-90
2023/08/29 05:55:45;;;;;;;1.95;1.40;;;14.90;85.70;;;;;;5051527;28;20368;-91
2023/08/29 05:58:11;;;;;;;2.35;1.30;;;14.90;85.90;;;;;;5051634;28;20035;-90
2023/08/29 06:00:37;;;;;;;1.88;0.98;;;14.90;85.80;;;;;;5043330;28;20037;-91
2023/08/29 06:03:04;;;;;;;1.40;1.17;;;14.90;85.70;;;;;;5037256;28;20436;-91
2023/08/29 06:05:31;;;;;;;1.77;1.40;;;15.00;85.60;;;;;;5040937;28;20474;-91
2023/08/29 06:07:59;;;;;;;2.20;1.17;;;15.00;85.50;;;;;;5039820;28;20029;-91
2023/08/29 06:10:24;;;;;;;1.65;1.30;;;15.10;85.40;;;;;;5039011;28;20060;-91
2023/08/29 06:12:50;;;;;;;2.50;1.48;;;15.10;85.30;;;;;;5032309;28;20120;-91
2023/08/29 06:15:16;;;;;;;1.58;1.35;;;15.10;85.30;;;;;;5031810;28;20033;-90
2023/08/29 06:17:41;;;;;;;1.60;1.30;;;15.10;85.30;;;;;;5039496;28;20043;-91
2023/08/29 06:20:08;;;;;;;3.63;1.50;;;15.20;85.40;;;;;;5042269;28;20139;-90
2023/08/29 06:22:34;;;;;;;1.30;1.20;;;15.40;85.30;;;;;;5039867;28;20487;-91
2023/08/29 06:24:59;;;;;;;2.60;1.50;;;15.50;84.90;;;;;;5048340;28;20043;-91
2023/08/29 06:27:25;;;;;;;2.85;1.50;;;15.60;84.60;;;;;;5046461;28;20013;-91
2023/08/29 06:29:51;;;;;;;1.25;1.15;;;15.70;84.40;;;;;;5045450;28;20026;-91
2023/08/29 06:32:16;;;;;;;1.40;1.25;;;15.90;84.10;;;;;;5044070;28;20029;-91
2023/08/29 06:34:49;;;;;;;2.90;1.33;;;16.20;83.60;;;;;;5119305;27;20392;-83
2023/08/29 06:37:16;;;;;;;3.40;1.33;;;16.70;82.80;;;;;;5131708;27;20032;-83
2023/08/29 06:39:42;;;;;;;1.80;1.33;;;17.10;81.60;;;;;;5111275;28;20027;-83
2023/08/29 06:42:08;;;;;;;2.65;1.40;;;17.30;80.70;;;;;;5113044;28;20030;-82
2023/08/29 06:44:34;;;;;;;2.10;1.30;;;17.60;80.30;;;;;;5110901;28;20020;-82
2023/08/29 06:46:59;;;;;;;2.90;1.30;;;18.20;79.40;;;;;;5110904;28;20091;-82
2023/08/29 06:49:26;;;;;;;1.55;1.30;;;18.80;78.20;;;;;;5112016;28;20035;-83
2023/08/29 06:51:52;;;;;;;3.08;1.30;;;19.50;76.70;;;;;;5121328;28;20084;-82
2023/08/29 06:54:18;;;;;;;1.20;1.00;;;20.00;75.30;;;;;;5111665;28;20059;-83
2023/08/29 06:56:43;;;;;;;1.98;1.35;;;20.80;74.00;;;;;;5108828;28;20016;-83
2023/08/29 06:59:10;;;;;;;1.73;1.00;;;21.50;72.40;;;;;;5111218;28;20023;-83
2023/08/29 07:01:37;;;;;;;1.20;0.70;;;22.30;70.70;;;;;;5108970;28;20062;-83
2023/08/29 07:04:03;;;;;;;1.95;0.70;;;23.10;68.80;;;;;;5113836;28;20111;-83
2023/08/29 07:06:29;;;;;;;2.50;1.05;;;23.70;66.70;;;;;;5119898;28;20026;-83
2023/08/29 07:08:54;;;;;;;1.98;0.90;;;24.10;65.00;;;;;;5117925;27;20098;-83
2023/08/29 07:11:20;;;;;;;2.22;0.80;;;24.60;63.70;;;;;;5106092;27;20032;-83
2023/08/29 07:13:46;;;;;;;1.50;0.75;;;25.00;62.70;;;;;;5107007;28;20089;-83
2023/08/29 07:16:11;;;;;;;1.63;0.82;;;25.10;61.90;;;;;;5114743;28;20046;-83
2023/08/29 07:18:37;;;;;;;1.60;1.02;;;24.60;62.00;;;;;;5115108;28;20051;-83
2023/08/29 07:21:03;;;;;;;1.65;0.88;;;24.60;62.30;;;;;;5110046;28;20149;-83
2023/08/29 07:23:28;;;;;;;2.17;0.88;;;24.80;61.60;;;;;;5095333;28;20035;-83
2023/08/29 07:25:54;;;;;;;1.50;0.90;;;24.50;61.60;;;;;;5089304;28;20445;-83
2023/08/29 07:28:19;;;;;;;1.90;0.90;;;24.10;62.30;;;;;;5098490;28;20031;-83
2023/08/29 07:30:47;;;;;;;1.83;0.70;;;23.60;62.80;;;;;;5112405;28;20528;-84
2023/08/29 07:33:14;;;;;;;1.85;0.70;;;23.30;63.60;;;;;;5106431;28;20130;-83
2023/08/29 07:35:41;;;;;;;1.75;0.80;;;22.90;64.20;;;;;;5101658;28;20028;-83
2023/08/29 07:38:07;;;;;;;0.85;0.70;;;22.60;64.60;;;;;;5108029;28;20681;-84
2023/08/29 07:40:33;;;;;;;1.48;0.70;;;22.40;65.40;;;;;;5107856;28;20570;-83
2023/08/29 07:43:05;;;;;;;0.80;0.70;;;22.20;65.70;;;;;;5092346;28;20020;-83
2023/08/29 07:45:38;;;;;;;1.52;0.60;;;22.40;66.50;;;;;;5093234;28;20478;-91
2023/08/29 07:48:04;;;;;;;2.92;0.80;;;22.70;65.10;;;;;;5113742;28;20394;-85
2023/08/29 07:50:30;;;;;;;1.83;0.70;;;23.00;64.60;;;;;;5109986;28;20055;-86
2023/08/29 07:52:56;;;;;;;2.40;0.80;;;23.10;64.10;;;;;;5094260;28;20082;-87
2023/08/29 07:55:22;;;;;;;1.13;0.80;;;22.80;64.30;;;;;;5095388;28;20045;-88
2023/08/29 07:57:48;;;;;;;1.58;0.80;;;22.30;65.00;;;;;;5108324;28;20099;-87
2023/08/29 08:00:15;;;;;;;1.77;0.80;;;21.90;66.00;;;;;;5093664;28;20107;-86
2023/08/29 08:02:41;;;;;;;1.17;0.77;;;21.60;66.80;;;;;;5092745;28;20077;-83
2023/08/29 08:05:11;;;;;;;1.63;0.75;;;21.20;67.60;;;;;;5094489;28;20537;-86
2023/08/29 08:07:43;;;;;;;1.35;0.70;;;21.10;68.30;;;;;;5098226;28;20512;-86
2023/08/29 08:10:13;;;;;;;2.35;1.10;;;20.90;68.80;;;;;;5105017;28;20023;-86
2023/08/29 08:12:40;;;;;;;1.92;0.63;;;20.70;68.90;;;;;;5101022;28;20020;-86
2023/08/29 08:15:08;;;;;;;2.03;0.85;;;20.80;69.10;;;;;;5100601;28;20016;-86
2023/08/29 08:18:14;;;;;;;1.10;0.73;;;20.70;69.00;;;;;;5114208;28;20015;-86
2023/08/29 08:27:50;;;;;;;1.67;0.70;;;20.80;68.90;;;;;;5085299;28;20113;-87
2023/08/29 08:30:16;;;;;;;1.48;0.73;;;20.90;69.00;;;;;;5082813;28;20023;-86
2023/08/29 08:32:43;;;;;;;0.75;0.60;;;21.00;69.10;;;;;;5073153;28;20032;-87
2023/08/29 08:35:10;;;;;;;0.95;0.63;;;21.00;68.90;;;;;;5072840;28;20016;-86
2023/08/29 08:37:35;;;;;;;1.65;0.60;;;21.20;68.30;;;;;;5077710;28;20020;-86
2023/08/29 08:40:09;;;;;;;1.23;0.55;;;21.30;67.50;;;;;;5092556;28;20398;-86
2023/08/29 08:43:27;;;;;;;1.52;0.70;;;21.40;67.30;;;;;;5094499;28;20024;-86
2023/08/29 08:45:53;;;;;;;0.77;0.60;;;21.60;67.00;;;;;;5083565;28;20650;-86
2023/08/29 08:48:20;;;;;;;0.85;0.65;;;21.70;66.70;;;;;;5075493;28;20057;-85
2023/08/29 08:50:47;;;;;;;0.90;0.60;;;21.80;66.40;;;;;;5083951;28;20110;-86
2023/08/29 08:53:14;;;;;;;0.60;0.50;;;21.80;66.10;;;;;;5095769;28;20031;-87
2023/08/29 08:55:40;;;;;;;0.68;0.60;;;21.90;66.10;;;;;;5111321;28;20062;-86
2023/08/29 08:58:06;;;;;;;2.13;0.60;;;21.90;66.00;;;;;;5106813;28;20025;-87
2023/08/29 09:00:33;;;;;;;1.05;0.60;;;21.90;66.10;;;;;;5106897;28;20020;-87
2023/08/29 09:02:58;;;;;;;1.83;0.70;;;21.90;66.00;;;;;;5113488;28;20016;-87
2023/08/29 09:05:24;;;;;;;2.08;0.80;;;21.80;66.00;;;;;;5113379;28;20027;-87
2023/08/29 09:07:50;;;;;;;1.15;0.57;;;21.60;65.80;;;;;;5102200;28;20031;-87
2023/08/29 09:10:16;;;;;;;0.70;0.70;;;21.30;66.30;;;;;;5095967;28;20033;-86
2023/08/29 09:12:47;;;;;;;1.23;0.63;;;21.10;66.50;;;;;;5109574;28;20100;-86
2023/08/29 09:15:16;;;;;;;0.70;0.50;;;21.00;67.10;;;;;;5120898;28;20043;-86
2023/08/29 09:17:49;;;;;;;1.55;0.70;;;21.10;67.40;;;;;;5120096;28;20031;-86
2023/08/29 09:20:16;;;;;;;1.02;0.70;;;21.20;67.50;;;;;;5134703;28;20008;-86
2023/08/29 09:22:42;;;;;;;1.48;0.68;;;21.30;67.50;;;;;;5106437;28;20042;-87
2023/08/29 09:25:09;;;;;;;1.02;0.60;;;21.40;67.40;;;;;;5110776;28;20093;-86
2023/08/29 09:27:42;;;;;;;1.25;0.50;;;21.50;67.10;;;;;;5110162;28;20023;-88
2023/08/29 09:30:27;;;;;;;2.03;0.70;;;21.50;66.80;;;;;;5081431;28;20028;-86
2023/08/29 09:32:53;;;;;;;0.90;0.60;;;21.50;66.80;;;;;;5097418;28;20038;-86
2023/08/29 09:55:16;;;;;;;0.80;0.50;;;21.70;65.70;;;;;;5069111;28;20052;-87
2023/08/29 09:57:42;;;;;;;0.98;0.75;;;21.80;65.90;;;;;;5074971;28;20493;-89
2023/08/29 10:00:12;;;;;;;1.05;0.52;;;21.70;65.30;;;;;;5075401;28;20475;-88
2023/08/29 10:02:40;;;;;;;0.95;0.60;;;21.70;65.40;;;;;;5092188;28;20482;-87
2023/08/29 10:05:09;;;;;;;1.70;0.57;;;21.70;65.30;;;;;;5090196;28;20034;-88
2023/08/29 10:07:45;;;;;;;2.35;0.70;;;21.60;65.00;;;;;;5089589;28;20024;-87
2023/08/29 10:10:11;;;;;;;0.93;0.75;;;21.60;64.70;;;;;;5080220;28;20107;-88
2023/08/29 10:12:37;;;;;;;1.35;0.73;;;21.70;64.70;;;;;;5090469;28;20048;-88
2023/08/29 10:15:04;;;;;;;1.95;0.65;;;21.60;64.50;;;;;;5088713;28;20031;-87
2023/08/29 10:17:35;;;;;;;1.25;0.70;;;21.80;64.70;;;;;;5097399;28;20077;-88
2023/08/29 10:20:08;;;;;;;1.13;0.65;;;22.00;64.10;;;;;;5089194;28;20016;-88
2023/08/29 10:23:06;;;;;;;1.35;0.77;;;22.20;63.40;;;;;;5105777;28;20024;-88
2023/08/29 10:25:33;;;;;;;1.65;0.73;;;22.10;62.60;;;;;;5088705;28;20085;-88
2023/08/29 10:31:21;;;;;;;1.35;0.60;;;22.20;63.00;;;;;;5111317;28;20019;-88
2023/08/29 10:33:47;;;;;;;0.85;0.70;;;22.10;63.20;;;;;;5108405;28;20036;-87
2023/08/29 10:40:17;;;;;;;2.55;0.80;;;22.10;63.70;;;;;;5080849;28;20026;-88
2023/08/29 10:42:57;;;;;;;0.82;0.60;;;21.90;64.10;;;;;;5089400;28;20020;-87
2023/08/29 10:45:41;;;;;;;0.75;0.75;;;21.90;64.50;;;;;;5088709;28;20040;-86
2023/08/29 10:48:07;;;;;;;0.73;0.60;;;21.80;64.80;;;;;;5089804;28;20434;-86
2023/08/29 10:50:33;;;;;;;1.38;0.82;;;21.70;65.30;;;;;;5096576;28;20019;-83
2023/08/29 10:52:59;;;;;;;1.02;0.73;;;21.60;65.70;;;;;;5091745;28;20166;-83
2023/08/29 10:55:40;;;;;;;0.95;0.80;;;21.60;66.00;;;;;;5094084;28;20027;-84
2023/08/29 10:58:38;;;;;;;0.70;0.70;;;21.50;66.50;;;;;;5092072;28;20031;-83
2023/08/29 11:01:05;;;;;;;0.90;0.80;;;21.50;66.80;;;;;;5088713;28;20569;-83
2023/08/29 11:03:42;;;;;;;2.33;0.90;;;21.40;67.20;;;;;;5092423;28;20043;-83
2023/08/29 11:06:08;;;;;;;1.02;0.90;;;21.30;67.50;;;;;;5088952;28;20054;-84
2023/08/29 11:08:34;;;;;;;1.67;1.08;;;21.30;67.50;;;;;;5086949;28;20089;-83
2023/08/29 11:11:16;;;;;;;1.20;0.80;;;21.30;67.70;;;;;;5092970;28;20024;-84
2023/08/29 11:13:58;;;;;;;1.48;0.80;;;21.30;67.70;;;;;;5089872;28;20059;-84
2023/08/29 11:16:24;;;;;;;;;;;21.40;68.40;;;;;;5089540;28;20490;-84
2023/08/29 11:19:12;;;;;;;1.05;0.90;;;21.50;67.70;;;;;;5089728;28;19908;-84
2023/08/29 11:21:38;;;;;;;2.15;1.08;;;21.50;67.70;;;;;;5094582;28;20013;-84
2023/08/29 11:24:07;;;;;;;1.88;1.10;;;21.50;67.60;;;;;;5093074;28;20046;-84
2023/08/29 11:26:36;;;;;;;1.35;0.93;;;21.50;67.80;;;;;;5094971;28;20036;-84
2023/08/29 11:29:01;;;;;;;2.58;1.20;;;21.50;67.60;;;;;;5092364;28;20118;-84
2023/08/29 11:31:29;;;;;;;2.17;1.10;;;21.50;67.50;;;;;;5091143;28;20138;-84
2023/08/29 11:33:55;;;;;;;1.10;1.00;;;21.50;67.40;;;;;;5093877;28;20166;-84
2023/08/29 11:36:20;;;;;;;2.70;1.30;;;21.60;67.40;;;;;;5094532;28;20052;-84
2023/08/29 11:38:46;;;;;;;2.60;1.30;;;21.70;67.50;;;;;;5097740;28;20360;-84
2023/08/29 11:41:13;;;;;;;2.53;1.10;;;21.70;67.20;;;;;;5096421;28;20028;-84
2023/08/29 11:43:39;;;;;;;1.38;1.17;;;21.80;67.00;;;;;;5095260;28;20032;-84
2023/08/29 11:46:06;;;;;;;2.00;1.17;;;21.80;66.70;;;;;;5100233;28;20023;-84
2023/08/29 11:48:33;;;;;;;2.33;1.40;;;21.80;66.40;;;;;;5098321;28;20024;-84
2023/08/29 11:51:06;;;;;;;2.38;1.67;;;21.90;66.10;;;;;;5091155;28;20024;-84
2023/08/29 11:53:33;;;;;;;3.20;1.30;;;21.90;65.70;;;;;;5088689;28;20169;-84
2023/08/29 11:56:01;;;;;;;3.58;1.70;;;21.90;65.30;;;;;;5092844;28;20099;-84
2023/08/29 11:58:28;;;;;;;1.95;1.30;;;22.00;65.10;;;;;;5090923;28;20016;-84
2023/08/29 12:00:54;;;;;;;3.08;1.70;;;22.10;65.00;;;;;;5091231;28;20016;-84
2023/08/29 12:03:27;;;;;;;2.92;2.10;;;22.30;64.80;;;;;;5096229;28;20030;-84
2023/08/29 12:05:59;;;;;;;1.88;1.58;;;22.30;63.90;;;;;;5094683;28;20039;-84
2023/08/29 12:08:42;;;;;;;1.40;1.30;;;22.20;64.30;;;;;;5097350;28;20110;-84
2023/08/29 12:11:09;;;;;;;1.45;1.33;;;22.20;64.40;;;;;;5096765;28;20102;-84
2023/08/29 12:13:38;;;;;;;1.60;1.20;;;22.30;64.30;;;;;;5095931;28;20117;-84
2023/08/29 12:16:13;;;;;;;2.75;2.05;;;22.40;64.30;;;;;;5097925;28;20024;-84
2023/08/29 12:18:40;;;;;;;2.22;1.38;;;22.40;62.00;;;;;;5092872;28;20367;-84
2023/08/29 12:21:24;;;;;;;1.98;1.50;;;22.40;62.60;;;;;;5092434;28;20024;-84
2023/08/29 12:23:49;;;;;;;1.40;1.30;;;22.50;62.60;;;;;;5092003;28;20028;-83
2023/08/29 12:26:15;;;;;;;2.42;1.58;;;22.60;62.60;;;;;;5094086;28;20081;-83
2023/08/29 12:28:41;;;;;;;2.63;1.48;;;22.80;62.50;;;;;;5094999;28;20089;-84
2023/08/29 12:31:07;;;;;;;3.08;1.98;;;23.10;62.00;;;;;;5091212;28;20038;-84
2023/08/29 12:33:34;;;;;;;1.98;1.60;;;23.20;60.90;;;;;;5090634;28;20115;-84
2023/08/29 12:36:00;;;;;;;2.03;1.52;;;23.20;60.50;;;;;;5091716;28;20028;-84
2023/08/29 12:38:30;;;;;;;3.38;1.70;;;23.30;60.20;;;;;;5094157;28;20020;-84
2023/08/29 12:40:56;;;;;;;1.92;1.55;;;23.20;60.80;;;;;;5092572;28;20024;-84
2023/08/29 12:43:22;;;;;;;1.50;1.35;;;23.40;60.10;;;;;;5091910;28;20039;-84
2023/08/29 12:45:48;;;;;;;1.75;1.17;;;23.30;59.50;;;;;;5090307;28;20024;-84
2023/08/29 12:48:18;;;;;;;1.27;1.10;;;23.40;59.20;;;;;;5093128;28;20406;-84
2023/08/29 12:50:44;;;;;;;2.55;1.45;;;23.40;59.30;;;;;;5091652;28;20031;-83
2023/08/29 12:53:09;;;;;;;3.10;2.47;;;23.30;59.20;;;;;;5094369;28;20575;-84
2023/08/29 12:55:35;;;;;;;2.65;2.20;;;23.30;58.90;;;;;;5090516;28;20013;-84
2023/08/29 12:58:00;;;;;;;2.67;1.60;;;23.10;59.10;;;;;;5091020;28;20033;-84
2023/08/29 13:00:27;;;;;;;2.10;1.88;;;23.00;59.80;;;;;;5093064;28;20087;-84
2023/08/29 13:02:52;;;;;;;2.90;2.00;;;23.10;60.00;;;;;;5093609;28;20016;-84
2023/08/29 13:05:19;;;;;;;2.28;1.50;;;23.00;60.20;;;;;;5091997;28;20356;-84
2023/08/29 13:07:47;;;;;;;3.50;2.67;;;23.00;60.70;;;;;;5090095;28;20063;-85
2023/08/29 13:10:13;;;;;;;2.15;1.80;;;23.00;60.20;;;;;;5091414;28;20024;-84
2023/08/29 13:12:38;;;;;;;3.05;2.60;;;22.80;60.40;;;;;;5092958;28;20052;-83
2023/08/29 13:15:11;;;;;;;2.70;2.50;;;22.90;60.10;;;;;;5092578;28;20024;-84
2023/08/29 13:17:38;;;;;;;2.08;1.88;;;22.70;60.10;;;;;;5091410;28;20698;-84
2023/08/29 13:20:05;;;;;;;1.77;1.67;;;22.60;60.50;;;;;;5095459;28;20036;-84
2023/08/29 13:22:31;;;;;;;1.75;1.65;;;22.50;60.50;;;;;;5095763;28;20031;-84
2023/08/29 13:24:56;;;;;;;2.42;2.00;;;22.70;60.60;;;;;;5095657;28;20032;-84